Airfield :
LOGIN :

Register | Disclaimer

   EN    FR    IT 

 










Legend :    VFR   Marginal VFR   IFR   Intensive IFR   Very Intensive IFR
Visi :
Ceiling :
>= 8 km
>= 3000ft
5 to 8 km
1000 to 3000 ft
1500m to 5 km
500 to 1000 ft
800 to 1500m
200 to 500 ft
< 800m
< 200 ft
Symbols :   Thunderstorms  Fog  Heavy snow  Heavy precipitations  Wind > 20 kt
SIGMETs :     Misc.  Thunderstorms  Icing  Turbulence  Mountain Waves  Volcanic Ashes






- Airport Elevation : 741 ft
- IATA code : PED


LKPD - Pardubice AB

EXPIRED METARs :
  • 280300Z 08005KT 9999 OVC020 02/01 Q1021 RMK BLU
  • 280230Z 07004KT 9999 OVC020 01/M00 Q1021 RMK BLU
  • 280200Z 06004KT 9999 OVC020 00/M01 Q1021 RMK BLU
  • 272200Z 06002KT CAVOK M01/M02 Q1024 RMK BLU

TAF TAF LKPD
Valid from the 28 at 00:00 until the 29 at 00:00 UTC


272300Z 2800/2900 11005KT CAVOK
BECMG 2803/2805 7000 OVC020
PROB30
TEMPO 2806/2809 4000 BR BKN014
BECMG 2809/2811 13008KT 9999 BKN030



MET'MAP, your aeronautical weather chart ! - Copyright ORBIFLY December 2007 - Disclaimer

ORBIFLY MET'MAP TEAM :

Programming & Development : Alexandra Zaïnal
Original concept : Baudouin d'Aumeries
Technical & hardware support : Manuel Goepfert
Assistance : Marc-Olivier Méhu




SOURCES & CREDITS :

   NOAA